sensor_id;sensor_type;location;lat;lon;timestamp;P1;durP1;ratioP1;P2;durP2;ratioP2
76262;SDS011;65080;50.908;6.916;2022-12-18T00:00:15;14.17;;;9.50;;
76262;SDS011;65080;50.908;6.916;2022-12-18T00:02:43;15.57;;;9.10;;
76262;SDS011;65080;50.908;6.916;2022-12-18T00:05:11;14.30;;;8.37;;
76262;SDS011;65080;50.908;6.916;2022-12-18T00:07:40;14.80;;;8.10;;
76262;SDS011;65080;50.908;6.916;2022-12-18T00:10:08;17.17;;;8.70;;
76262;SDS011;65080;50.908;6.916;2022-12-18T00:12:42;15.07;;;8.00;;
76262;SDS011;65080;50.908;6.916;2022-12-18T00:15:10;17.13;;;8.87;;
76262;SDS011;65080;50.908;6.916;2022-12-18T00:17:38;15.17;;;8.37;;
76262;SDS011;65080;50.908;6.916;2022-12-18T00:20:07;16.90;;;8.93;;
76262;SDS011;65080;50.908;6.916;2022-12-18T00:22:36;13.00;;;7.87;;
76262;SDS011;65080;50.908;6.916;2022-12-18T00:25:05;17.70;;;9.27;;
76262;SDS011;65080;50.908;6.916;2022-12-18T00:27:33;15.17;;;8.60;;
76262;SDS011;65080;50.908;6.916;2022-12-18T00:30:04;14.77;;;8.93;;
76262;SDS011;65080;50.908;6.916;2022-12-18T00:32:33;14.03;;;9.00;;
76262;SDS011;65080;50.908;6.916;2022-12-18T00:35:01;14.60;;;8.40;;
76262;SDS011;65080;50.908;6.916;2022-12-18T00:37:29;17.03;;;9.40;;
76262;SDS011;65080;50.908;6.916;2022-12-18T00:39:58;12.53;;;7.73;;
76262;SDS011;65080;50.908;6.916;2022-12-18T00:42:26;15.03;;;8.90;;
76262;SDS011;65080;50.908;6.916;2022-12-18T00:45:13;13.73;;;7.97;;
76262;SDS011;65080;50.908;6.916;2022-12-18T00:47:41;14.97;;;8.67;;
76262;SDS011;65080;50.908;6.916;2022-12-18T00:50:10;17.10;;;9.70;;
76262;SDS011;65080;50.908;6.916;2022-12-18T00:52:38;14.83;;;8.60;;
76262;SDS011;65080;50.908;6.916;2022-12-18T00:55:06;16.83;;;8.73;;
76262;SDS011;65080;50.908;6.916;2022-12-18T00:57:35;15.30;;;8.47;;
76262;SDS011;65080;50.908;6.916;2022-12-18T01:00:04;18.53;;;8.67;;
76262;SDS011;65080;50.908;6.916;2022-12-18T01:02:35;15.60;;;8.40;;
76262;SDS011;65080;50.908;6.916;2022-12-18T01:05:04;16.67;;;9.23;;
76262;SDS011;65080;50.908;6.916;2022-12-18T01:07:33;16.67;;;8.97;;
76262;SDS011;65080;50.908;6.916;2022-12-18T01:10:01;18.10;;;8.87;;
76262;SDS011;65080;50.908;6.916;2022-12-18T01:12:30;15.70;;;8.37;;
76262;SDS011;65080;50.908;6.916;2022-12-18T01:14:59;14.07;;;9.20;;
76262;SDS011;65080;50.908;6.916;2022-12-18T01:17:27;17.20;;;9.77;;
76262;SDS011;65080;50.908;6.916;2022-12-18T01:19:57;15.50;;;8.97;;
76262;SDS011;65080;50.908;6.916;2022-12-18T01:22:25;14.23;;;8.70;;
76262;SDS011;65080;50.908;6.916;2022-12-18T01:24:53;15.83;;;9.37;;
76262;SDS011;65080;50.908;6.916;2022-12-18T01:27:21;14.10;;;8.80;;
76262;SDS011;65080;50.908;6.916;2022-12-18T01:29:49;16.27;;;8.97;;
76262;SDS011;65080;50.908;6.916;2022-12-18T01:32:17;13.80;;;8.57;;
76262;SDS011;65080;50.908;6.916;2022-12-18T01:34:46;17.90;;;9.20;;
76262;SDS011;65080;50.908;6.916;2022-12-18T01:37:15;12.17;;;8.33;;
76262;SDS011;65080;50.908;6.916;2022-12-18T01:39:43;20.97;;;10.20;;
76262;SDS011;65080;50.908;6.916;2022-12-18T01:42:13;13.13;;;8.93;;
76262;SDS011;65080;50.908;6.916;2022-12-18T01:45:02;13.30;;;9.10;;
76262;SDS011;65080;50.908;6.916;2022-12-18T01:47:35;17.17;;;9.23;;
76262;SDS011;65080;50.908;6.916;2022-12-18T01:50:07;15.77;;;9.27;;
76262;SDS011;65080;50.908;6.916;2022-12-18T01:52:39;14.90;;;8.60;;
76262;SDS011;65080;50.908;6.916;2022-12-18T01:55:10;15.67;;;8.93;;
76262;SDS011;65080;50.908;6.916;2022-12-18T01:57:39;16.70;;;8.53;;
76262;SDS011;65080;50.908;6.916;2022-12-18T02:00:09;14.40;;;8.90;;
76262;SDS011;65080;50.908;6.916;2022-12-18T02:02:40;18.27;;;9.43;;
76262;SDS011;65080;50.908;6.916;2022-12-18T02:05:09;14.77;;;10.10;;
76262;SDS011;65080;50.908;6.916;2022-12-18T02:07:42;18.60;;;9.10;;
76262;SDS011;65080;50.908;6.916;2022-12-18T02:10:17;14.67;;;8.93;;
76262;SDS011;65080;50.908;6.916;2022-12-18T02:12:52;15.47;;;9.50;;
76262;SDS011;65080;50.908;6.916;2022-12-18T02:15:31;17.50;;;10.30;;
76262;SDS011;65080;50.908;6.916;2022-12-18T02:18:06;15.03;;;8.90;;
76262;SDS011;65080;50.908;6.916;2022-12-18T02:20:43;16.10;;;9.90;;
76262;SDS011;65080;50.908;6.916;2022-12-18T02:23:19;13.87;;;9.30;;
76262;SDS011;65080;50.908;6.916;2022-12-18T02:26:06;17.30;;;8.10;;
76262;SDS011;65080;50.908;6.916;2022-12-18T02:28:42;16.37;;;8.83;;
76262;SDS011;65080;50.908;6.916;2022-12-18T02:31:14;15.20;;;8.43;;
76262;SDS011;65080;50.908;6.916;2022-12-18T02:33:47;17.03;;;9.33;;
76262;SDS011;65080;50.908;6.916;2022-12-18T02:36:17;16.07;;;8.90;;
76262;SDS011;65080;50.908;6.916;2022-12-18T02:38:48;17.73;;;9.00;;
76262;SDS011;65080;50.908;6.916;2022-12-18T02:41:19;18.63;;;10.07;;
76262;SDS011;65080;50.908;6.916;2022-12-18T02:43:53;17.00;;;8.87;;
76262;SDS011;65080;50.908;6.916;2022-12-18T02:46:25;19.33;;;9.83;;
76262;SDS011;65080;50.908;6.916;2022-12-18T02:49:00;19.80;;;8.60;;
76262;SDS011;65080;50.908;6.916;2022-12-18T02:51:36;15.60;;;8.10;;
76262;SDS011;65080;50.908;6.916;2022-12-18T02:54:15;15.80;;;8.77;;
76262;SDS011;65080;50.908;6.916;2022-12-18T02:56:54;15.00;;;8.67;;
76262;SDS011;65080;50.908;6.916;2022-12-18T02:59:26;15.47;;;8.87;;
76262;SDS011;65080;50.908;6.916;2022-12-18T03:02:02;12.47;;;8.33;;
76262;SDS011;65080;50.908;6.916;2022-12-18T06:43:43;18.70;;;10.30;;
76262;SDS011;65080;50.908;6.916;2022-12-18T06:46:31;19.40;;;10.17;;
76262;SDS011;65080;50.908;6.916;2022-12-18T06:49:07;18.43;;;10.20;;
76262;SDS011;65080;50.908;6.916;2022-12-18T06:51:46;17.37;;;10.80;;
76262;SDS011;65080;50.908;6.916;2022-12-18T06:54:14;17.40;;;10.20;;
76262;SDS011;65080;50.908;6.916;2022-12-18T06:56:46;16.70;;;10.50;;
76262;SDS011;65080;50.908;6.916;2022-12-18T06:59:16;17.60;;;10.30;;
76262;SDS011;65080;50.908;6.916;2022-12-18T07:01:47;20.13;;;10.13;;
76262;SDS011;65080;50.908;6.916;2022-12-18T07:04:18;19.97;;;11.83;;
76262;SDS011;65080;50.908;6.916;2022-12-18T07:06:46;16.70;;;9.90;;
76262;SDS011;65080;50.908;6.916;2022-12-18T07:09:17;19.83;;;11.27;;
76262;SDS011;65080;50.908;6.916;2022-12-18T07:11:46;18.27;;;9.83;;
76262;SDS011;65080;50.908;6.916;2022-12-18T07:14:17;17.40;;;9.80;;
76262;SDS011;65080;50.908;6.916;2022-12-18T07:16:47;18.70;;;10.80;;
76262;SDS011;65080;50.908;6.916;2022-12-18T07:19:16;18.53;;;10.43;;
76262;SDS011;65080;50.908;6.916;2022-12-18T07:21:54;18.77;;;9.43;;
76262;SDS011;65080;50.908;6.916;2022-12-18T07:24:32;18.67;;;10.50;;
76262;SDS011;65080;50.908;6.916;2022-12-18T07:27:01;18.00;;;9.87;;
76262;SDS011;65080;50.908;6.916;2022-12-18T07:29:32;21.30;;;11.63;;
76262;SDS011;65080;50.908;6.916;2022-12-18T07:32:01;18.03;;;10.53;;
76262;SDS011;65080;50.908;6.916;2022-12-18T07:34:38;19.17;;;11.37;;
76262;SDS011;65080;50.908;6.916;2022-12-18T07:37:18;13.27;;;8.53;;
76262;SDS011;65080;50.908;6.916;2022-12-18T07:39:50;17.47;;;10.60;;
76262;SDS011;65080;50.908;6.916;2022-12-18T07:42:20;17.57;;;10.60;;
76262;SDS011;65080;50.908;6.916;2022-12-18T07:44:59;18.93;;;10.57;;
76262;SDS011;65080;50.908;6.916;2022-12-18T07:47:33;20.63;;;11.17;;
76262;SDS011;65080;50.908;6.916;2022-12-18T07:50:03;19.00;;;11.43;;
76262;SDS011;65080;50.908;6.916;2022-12-18T07:52:39;18.90;;;11.07;;
76262;SDS011;65080;50.908;6.916;2022-12-18T07:55:09;20.90;;;10.87;;
76262;SDS011;65080;50.908;6.916;2022-12-18T07:57:38;18.07;;;10.83;;
76262;SDS011;65080;50.908;6.916;2022-12-18T08:00:19;18.67;;;11.30;;
76262;SDS011;65080;50.908;6.916;2022-12-18T08:02:58;17.20;;;9.60;;
76262;SDS011;65080;50.908;6.916;2022-12-18T08:05:27;16.77;;;10.37;;
76262;SDS011;65080;50.908;6.916;2022-12-18T08:08:00;21.30;;;10.70;;
76262;SDS011;65080;50.908;6.916;2022-12-18T08:10:34;16.07;;;10.30;;
76262;SDS011;65080;50.908;6.916;2022-12-18T08:13:09;14.63;;;9.80;;
76262;SDS011;65080;50.908;6.916;2022-12-18T08:15:45;17.33;;;10.70;;
76262;SDS011;65080;50.908;6.916;2022-12-18T08:18:14;19.30;;;10.20;;
76262;SDS011;65080;50.908;6.916;2022-12-18T08:20:42;16.63;;;10.70;;
76262;SDS011;65080;50.908;6.916;2022-12-18T08:23:19;15.70;;;9.73;;
76262;SDS011;65080;50.908;6.916;2022-12-18T08:25:47;18.80;;;11.00;;
76262;SDS011;65080;50.908;6.916;2022-12-18T08:30:53;20.07;;;11.20;;
76262;SDS011;65080;50.908;6.916;2022-12-18T08:33:23;16.80;;;11.13;;
76262;SDS011;65080;50.908;6.916;2022-12-18T08:35:51;19.13;;;10.97;;
76262;SDS011;65080;50.908;6.916;2022-12-18T08:38:21;20.83;;;11.67;;
76262;SDS011;65080;50.908;6.916;2022-12-18T08:40:53;23.53;;;11.97;;
76262;SDS011;65080;50.908;6.916;2022-12-18T08:43:26;17.73;;;10.63;;
76262;SDS011;65080;50.908;6.916;2022-12-18T08:46:18;16.27;;;10.40;;
76262;SDS011;65080;50.908;6.916;2022-12-18T08:48:56;19.50;;;11.27;;
76262;SDS011;65080;50.908;6.916;2022-12-18T08:51:27;17.57;;;11.10;;
76262;SDS011;65080;50.908;6.916;2022-12-18T08:53:57;20.43;;;10.90;;
76262;SDS011;65080;50.908;6.916;2022-12-18T08:56:27;18.40;;;10.80;;
76262;SDS011;65080;50.908;6.916;2022-12-18T08:58:56;17.37;;;10.67;;
76262;SDS011;65080;50.908;6.916;2022-12-18T09:01:27;19.03;;;10.90;;
76262;SDS011;65080;50.908;6.916;2022-12-18T09:03:56;16.80;;;10.30;;
76262;SDS011;65080;50.908;6.916;2022-12-18T09:06:27;16.07;;;10.77;;
76262;SDS011;65080;50.908;6.916;2022-12-18T09:08:57;16.73;;;10.47;;
76262;SDS011;65080;50.908;6.916;2022-12-18T09:11:27;17.50;;;10.20;;
76262;SDS011;65080;50.908;6.916;2022-12-18T09:13:56;16.87;;;10.30;;
76262;SDS011;65080;50.908;6.916;2022-12-18T09:16:26;17.60;;;10.00;;
76262;SDS011;65080;50.908;6.916;2022-12-18T09:19:00;16.70;;;9.70;;
76262;SDS011;65080;50.908;6.916;2022-12-18T09:21:30;17.90;;;10.40;;
76262;SDS011;65080;50.908;6.916;2022-12-18T09:24:04;17.20;;;10.20;;
76262;SDS011;65080;50.908;6.916;2022-12-18T09:29:09;15.73;;;10.37;;
76262;SDS011;65080;50.908;6.916;2022-12-18T09:31:39;19.70;;;11.70;;
76262;SDS011;65080;50.908;6.916;2022-12-18T09:34:08;19.33;;;11.07;;
76262;SDS011;65080;50.908;6.916;2022-12-18T09:36:38;19.20;;;10.10;;
76262;SDS011;65080;50.908;6.916;2022-12-18T09:39:06;15.77;;;9.07;;
76262;SDS011;65080;50.908;6.916;2022-12-18T09:41:46;16.27;;;10.30;;
76262;SDS011;65080;50.908;6.916;2022-12-18T09:44:21;16.80;;;10.10;;
76262;SDS011;65080;50.908;6.916;2022-12-18T09:47:02;18.50;;;9.90;;
76262;SDS011;65080;50.908;6.916;2022-12-18T09:49:38;17.27;;;9.63;;
76262;SDS011;65080;50.908;6.916;2022-12-18T09:52:11;18.70;;;10.87;;
76262;SDS011;65080;50.908;6.916;2022-12-18T09:54:45;19.73;;;10.10;;
76262;SDS011;65080;50.908;6.916;2022-12-18T09:57:23;19.17;;;10.87;;
76262;SDS011;65080;50.908;6.916;2022-12-18T09:59:54;18.37;;;10.77;;
76262;SDS011;65080;50.908;6.916;2022-12-18T10:02:33;18.30;;;11.03;;
76262;SDS011;65080;50.908;6.916;2022-12-18T10:05:03;16.57;;;10.07;;
76262;SDS011;65080;50.908;6.916;2022-12-18T10:10:32;18.13;;;10.47;;
76262;SDS011;65080;50.908;6.916;2022-12-18T10:13:07;17.10;;;10.50;;
76262;SDS011;65080;50.908;6.916;2022-12-18T10:15:48;15.97;;;10.13;;
76262;SDS011;65080;50.908;6.916;2022-12-18T10:21:09;19.23;;;10.23;;
76262;SDS011;65080;50.908;6.916;2022-12-18T10:23:44;14.63;;;9.57;;
76262;SDS011;65080;50.908;6.916;2022-12-18T10:26:21;19.07;;;10.63;;
76262;SDS011;65080;50.908;6.916;2022-12-18T10:28:52;18.37;;;10.23;;
76262;SDS011;65080;50.908;6.916;2022-12-18T10:31:32;21.37;;;11.57;;
76262;SDS011;65080;50.908;6.916;2022-12-18T10:34:02;18.40;;;10.40;;
76262;SDS011;65080;50.908;6.916;2022-12-18T10:36:31;15.37;;;10.37;;
76262;SDS011;65080;50.908;6.916;2022-12-18T10:39:15;19.27;;;11.10;;
76262;SDS011;65080;50.908;6.916;2022-12-18T10:41:45;16.23;;;10.20;;
76262;SDS011;65080;50.908;6.916;2022-12-18T10:44:17;17.20;;;10.50;;
76262;SDS011;65080;50.908;6.916;2022-12-18T10:49:25;18.63;;;11.53;;
76262;SDS011;65080;50.908;6.916;2022-12-18T10:52:14;17.50;;;10.93;;
76262;SDS011;65080;50.908;6.916;2022-12-18T10:54:47;15.63;;;9.80;;
76262;SDS011;65080;50.908;6.916;2022-12-18T10:57:29;17.23;;;10.07;;
76262;SDS011;65080;50.908;6.916;2022-12-18T11:00:19;17.70;;;10.90;;
76262;SDS011;65080;50.908;6.916;2022-12-18T11:02:51;19.33;;;10.53;;
76262;SDS011;65080;50.908;6.916;2022-12-18T11:05:29;16.93;;;10.77;;
76262;SDS011;65080;50.908;6.916;2022-12-18T11:07:59;19.70;;;10.90;;
76262;SDS011;65080;50.908;6.916;2022-12-18T11:10:30;17.30;;;9.80;;
76262;SDS011;65080;50.908;6.916;2022-12-18T11:13:16;17.00;;;10.20;;
76262;SDS011;65080;50.908;6.916;2022-12-18T11:15:50;17.83;;;10.30;;
76262;SDS011;65080;50.908;6.916;2022-12-18T11:18:19;17.33;;;10.03;;
76262;SDS011;65080;50.908;6.916;2022-12-18T11:20:56;15.60;;;9.77;;
76262;SDS011;65080;50.908;6.916;2022-12-18T11:23:32;20.83;;;11.30;;
76262;SDS011;65080;50.908;6.916;2022-12-18T11:26:03;16.50;;;10.10;;
76262;SDS011;65080;50.908;6.916;2022-12-18T11:28:36;19.83;;;11.47;;
76262;SDS011;65080;50.908;6.916;2022-12-18T11:31:21;18.47;;;10.43;;
76262;SDS011;65080;50.908;6.916;2022-12-18T11:34:05;18.47;;;9.90;;
76262;SDS011;65080;50.908;6.916;2022-12-18T11:37:00;16.27;;;10.33;;
76262;SDS011;65080;50.908;6.916;2022-12-18T11:39:34;20.57;;;10.43;;
76262;SDS011;65080;50.908;6.916;2022-12-18T11:42:10;19.70;;;11.10;;
76262;SDS011;65080;50.908;6.916;2022-12-18T11:44:43;17.83;;;10.53;;
76262;SDS011;65080;50.908;6.916;2022-12-18T11:47:19;18.53;;;10.53;;
76262;SDS011;65080;50.908;6.916;2022-12-18T11:50:01;18.87;;;10.30;;
76262;SDS011;65080;50.908;6.916;2022-12-18T11:52:35;18.03;;;11.00;;
76262;SDS011;65080;50.908;6.916;2022-12-18T11:55:15;19.13;;;10.20;;
76262;SDS011;65080;50.908;6.916;2022-12-18T11:57:50;19.90;;;10.90;;
76262;SDS011;65080;50.908;6.916;2022-12-18T12:00:39;17.70;;;11.00;;
76262;SDS011;65080;50.908;6.916;2022-12-18T12:03:33;21.17;;;10.40;;
76262;SDS011;65080;50.908;6.916;2022-12-18T12:06:16;20.37;;;11.47;;
76262;SDS011;65080;50.908;6.916;2022-12-18T12:08:57;18.83;;;12.30;;
76262;SDS011;65080;50.908;6.916;2022-12-18T12:11:33;16.27;;;10.67;;
76262;SDS011;65080;50.908;6.916;2022-12-18T12:14:16;18.53;;;10.43;;
76262;SDS011;65080;50.908;6.916;2022-12-18T12:16:57;15.57;;;9.60;;
76262;SDS011;65080;50.908;6.916;2022-12-18T12:19:33;18.97;;;11.40;;
76262;SDS011;65080;50.908;6.916;2022-12-18T12:22:09;20.43;;;10.47;;
76262;SDS011;65080;50.908;6.916;2022-12-18T12:24:58;17.50;;;11.03;;
76262;SDS011;65080;50.908;6.916;2022-12-18T12:27:45;20.90;;;11.30;;
76262;SDS011;65080;50.908;6.916;2022-12-18T12:30:20;18.90;;;12.43;;
76262;SDS011;65080;50.908;6.916;2022-12-18T12:32:56;18.33;;;11.37;;
76262;SDS011;65080;50.908;6.916;2022-12-18T12:35:40;21.47;;;12.13;;
76262;SDS011;65080;50.908;6.916;2022-12-18T12:38:19;16.30;;;10.87;;
76262;SDS011;65080;50.908;6.916;2022-12-18T12:40:56;18.90;;;12.03;;
76262;SDS011;65080;50.908;6.916;2022-12-18T12:43:32;19.47;;;12.03;;
76262;SDS011;65080;50.908;6.916;2022-12-18T12:46:15;20.03;;;12.90;;
76262;SDS011;65080;50.908;6.916;2022-12-18T12:48:49;17.90;;;11.60;;
76262;SDS011;65080;50.908;6.916;2022-12-18T12:51:21;19.23;;;11.53;;
76262;SDS011;65080;50.908;6.916;2022-12-18T12:53:53;20.07;;;11.50;;
76262;SDS011;65080;50.908;6.916;2022-12-18T12:56:32;17.90;;;11.60;;
76262;SDS011;65080;50.908;6.916;2022-12-18T12:59:10;24.43;;;12.00;;
76262;SDS011;65080;50.908;6.916;2022-12-18T13:01:49;22.70;;;11.23;;
76262;SDS011;65080;50.908;6.916;2022-12-18T13:04:23;19.90;;;12.23;;
76262;SDS011;65080;50.908;6.916;2022-12-18T13:07:09;18.97;;;10.73;;
76262;SDS011;65080;50.908;6.916;2022-12-18T13:13:04;19.10;;;11.50;;
76262;SDS011;65080;50.908;6.916;2022-12-18T13:15:39;21.63;;;12.73;;
76262;SDS011;65080;50.908;6.916;2022-12-18T13:18:12;20.47;;;11.70;;
76262;SDS011;65080;50.908;6.916;2022-12-18T13:21:23;18.57;;;12.23;;
76262;SDS011;65080;50.908;6.916;2022-12-18T13:24:14;20.77;;;12.60;;
76262;SDS011;65080;50.908;6.916;2022-12-18T13:26:54;18.87;;;12.30;;
76262;SDS011;65080;50.908;6.916;2022-12-18T13:32:21;22.77;;;12.70;;
76262;SDS011;65080;50.908;6.916;2022-12-18T13:38:16;16.63;;;10.97;;
76262;SDS011;65080;50.908;6.916;2022-12-18T13:43:27;18.80;;;11.60;;
76262;SDS011;65080;50.908;6.916;2022-12-18T13:46:16;22.23;;;12.80;;
76262;SDS011;65080;50.908;6.916;2022-12-18T13:48:57;19.30;;;12.83;;
76262;SDS011;65080;50.908;6.916;2022-12-18T13:51:31;24.83;;;13.03;;
76262;SDS011;65080;50.908;6.916;2022-12-18T13:56:43;25.40;;;13.43;;
76262;SDS011;65080;50.908;6.916;2022-12-18T13:59:15;20.00;;;14.20;;
76262;SDS011;65080;50.908;6.916;2022-12-18T14:01:53;26.17;;;13.77;;
76262;SDS011;65080;50.908;6.916;2022-12-18T14:04:25;18.70;;;13.10;;
76262;SDS011;65080;50.908;6.916;2022-12-18T14:06:57;24.57;;;12.30;;
76262;SDS011;65080;50.908;6.916;2022-12-18T14:09:34;21.20;;;14.20;;
76262;SDS011;65080;50.908;6.916;2022-12-18T14:12:14;22.10;;;12.67;;
76262;SDS011;65080;50.908;6.916;2022-12-18T14:15:06;23.20;;;12.07;;
76262;SDS011;65080;50.908;6.916;2022-12-18T14:17:50;21.67;;;13.43;;
76262;SDS011;65080;50.908;6.916;2022-12-18T14:20:26;23.63;;;14.37;;
76262;SDS011;65080;50.908;6.916;2022-12-18T14:22:58;20.90;;;12.77;;
76262;SDS011;65080;50.908;6.916;2022-12-18T14:25:27;26.43;;;13.03;;
76262;SDS011;65080;50.908;6.916;2022-12-18T14:28:13;27.47;;;14.00;;
76262;SDS011;65080;50.908;6.916;2022-12-18T14:30:51;20.90;;;13.07;;
76262;SDS011;65080;50.908;6.916;2022-12-18T14:35:57;21.37;;;14.23;;
76262;SDS011;65080;50.908;6.916;2022-12-18T14:38:29;20.97;;;13.67;;
76262;SDS011;65080;50.908;6.916;2022-12-18T14:40:58;20.40;;;13.23;;
76262;SDS011;65080;50.908;6.916;2022-12-18T14:43:34;22.83;;;13.50;;
76262;SDS011;65080;50.908;6.916;2022-12-18T14:46:04;22.73;;;13.93;;
76262;SDS011;65080;50.908;6.916;2022-12-18T14:48:54;25.13;;;12.97;;
76262;SDS011;65080;50.908;6.916;2022-12-18T14:51:24;21.70;;;12.67;;
76262;SDS011;65080;50.908;6.916;2022-12-18T14:53:56;22.80;;;14.10;;
76262;SDS011;65080;50.908;6.916;2022-12-18T14:56:27;25.57;;;14.63;;
76262;SDS011;65080;50.908;6.916;2022-12-18T14:58:59;27.33;;;14.90;;
76262;SDS011;65080;50.908;6.916;2022-12-18T15:01:29;21.40;;;13.40;;
76262;SDS011;65080;50.908;6.916;2022-12-18T15:04:03;21.40;;;12.87;;
76262;SDS011;65080;50.908;6.916;2022-12-18T15:06:34;23.00;;;13.50;;
76262;SDS011;65080;50.908;6.916;2022-12-18T15:09:05;22.47;;;14.80;;
76262;SDS011;65080;50.908;6.916;2022-12-18T15:11:49;23.80;;;14.27;;
76262;SDS011;65080;50.908;6.916;2022-12-18T15:14:34;24.10;;;13.87;;
76262;SDS011;65080;50.908;6.916;2022-12-18T15:17:13;29.70;;;13.10;;
76262;SDS011;65080;50.908;6.916;2022-12-18T15:19:46;22.80;;;13.47;;
76262;SDS011;65080;50.908;6.916;2022-12-18T15:22:17;23.73;;;14.53;;
76262;SDS011;65080;50.908;6.916;2022-12-18T15:24:50;22.13;;;13.33;;
76262;SDS011;65080;50.908;6.916;2022-12-18T15:27:20;22.87;;;14.13;;
76262;SDS011;65080;50.908;6.916;2022-12-18T15:35:57;21.40;;;13.47;;
76262;SDS011;65080;50.908;6.916;2022-12-18T15:38:32;24.13;;;13.20;;
76262;SDS011;65080;50.908;6.916;2022-12-18T15:41:01;21.17;;;13.17;;
76262;SDS011;65080;50.908;6.916;2022-12-18T15:43:30;23.60;;;14.00;;
76262;SDS011;65080;50.908;6.916;2022-12-18T15:46:02;24.40;;;14.10;;
76262;SDS011;65080;50.908;6.916;2022-12-18T15:48:32;22.30;;;13.20;;
76262;SDS011;65080;50.908;6.916;2022-12-18T15:51:11;23.17;;;14.47;;
76262;SDS011;65080;50.908;6.916;2022-12-18T15:53:43;22.70;;;14.63;;
76262;SDS011;65080;50.908;6.916;2022-12-18T15:56:18;29.80;;;15.50;;
76262;SDS011;65080;50.908;6.916;2022-12-18T15:59:07;24.63;;;13.87;;
76262;SDS011;65080;50.908;6.916;2022-12-18T16:01:38;22.80;;;14.30;;
76262;SDS011;65080;50.908;6.916;2022-12-18T16:04:10;23.50;;;14.90;;
76262;SDS011;65080;50.908;6.916;2022-12-18T16:06:46;22.80;;;14.10;;
76262;SDS011;65080;50.908;6.916;2022-12-18T16:09:35;23.30;;;14.17;;
76262;SDS011;65080;50.908;6.916;2022-12-18T16:12:17;24.40;;;14.30;;
76262;SDS011;65080;50.908;6.916;2022-12-18T16:14:55;26.30;;;15.60;;
76262;SDS011;65080;50.908;6.916;2022-12-18T16:17:26;23.53;;;14.17;;
76262;SDS011;65080;50.908;6.916;2022-12-18T16:19:57;24.63;;;15.23;;
76262;SDS011;65080;50.908;6.916;2022-12-18T16:22:33;23.30;;;14.33;;
76262;SDS011;65080;50.908;6.916;2022-12-18T16:25:02;22.03;;;13.60;;
76262;SDS011;65080;50.908;6.916;2022-12-18T16:27:31;27.70;;;15.60;;
76262;SDS011;65080;50.908;6.916;2022-12-18T16:30:00;28.23;;;14.63;;
76262;SDS011;65080;50.908;6.916;2022-12-18T16:32:30;26.83;;;14.87;;
76262;SDS011;65080;50.908;6.916;2022-12-18T16:35:05;25.80;;;16.23;;
76262;SDS011;65080;50.908;6.916;2022-12-18T16:37:44;27.47;;;15.60;;
76262;SDS011;65080;50.908;6.916;2022-12-18T16:40:14;24.03;;;15.80;;
76262;SDS011;65080;50.908;6.916;2022-12-18T16:42:44;23.37;;;15.57;;
76262;SDS011;65080;50.908;6.916;2022-12-18T16:45:14;24.00;;;14.77;;
76262;SDS011;65080;50.908;6.916;2022-12-18T16:47:45;25.83;;;15.43;;
76262;SDS011;65080;50.908;6.916;2022-12-18T16:50:13;26.63;;;16.40;;
76262;SDS011;65080;50.908;6.916;2022-12-18T16:52:44;26.53;;;17.03;;
76262;SDS011;65080;50.908;6.916;2022-12-18T16:55:20;26.00;;;15.60;;
76262;SDS011;65080;50.908;6.916;2022-12-18T16:57:49;24.07;;;14.13;;
76262;SDS011;65080;50.908;6.916;2022-12-18T17:00:17;25.10;;;15.10;;
76262;SDS011;65080;50.908;6.916;2022-12-18T17:02:46;23.60;;;14.70;;
76262;SDS011;65080;50.908;6.916;2022-12-18T17:05:17;25.40;;;16.90;;
76262;SDS011;65080;50.908;6.916;2022-12-18T17:07:54;31.50;;;17.30;;
76262;SDS011;65080;50.908;6.916;2022-12-18T17:10:22;27.40;;;17.20;;
76262;SDS011;65080;50.908;6.916;2022-12-18T17:12:52;25.90;;;16.87;;
76262;SDS011;65080;50.908;6.916;2022-12-18T17:15:23;27.23;;;16.77;;
76262;SDS011;65080;50.908;6.916;2022-12-18T17:17:52;23.53;;;15.33;;
76262;SDS011;65080;50.908;6.916;2022-12-18T17:20:23;25.37;;;16.40;;
76262;SDS011;65080;50.908;6.916;2022-12-18T17:22:54;28.47;;;16.60;;
76262;SDS011;65080;50.908;6.916;2022-12-18T17:25:31;30.93;;;17.80;;
76262;SDS011;65080;50.908;6.916;2022-12-18T17:28:00;23.93;;;15.30;;
76262;SDS011;65080;50.908;6.916;2022-12-18T17:30:28;27.97;;;17.37;;
76262;SDS011;65080;50.908;6.916;2022-12-18T17:32:56;31.20;;;16.73;;
76262;SDS011;65080;50.908;6.916;2022-12-18T17:35:25;25.10;;;15.83;;
76262;SDS011;65080;50.908;6.916;2022-12-18T17:37:55;27.90;;;18.00;;
76262;SDS011;65080;50.908;6.916;2022-12-18T17:40:24;30.37;;;16.83;;
76262;SDS011;65080;50.908;6.916;2022-12-18T17:42:52;27.10;;;16.03;;
76262;SDS011;65080;50.908;6.916;2022-12-18T17:45:20;28.60;;;17.50;;
76262;SDS011;65080;50.908;6.916;2022-12-18T17:47:49;28.33;;;14.80;;
76262;SDS011;65080;50.908;6.916;2022-12-18T17:50:25;29.40;;;16.93;;
76262;SDS011;65080;50.908;6.916;2022-12-18T17:52:55;30.43;;;16.50;;
76262;SDS011;65080;50.908;6.916;2022-12-18T17:55:25;28.60;;;17.43;;
76262;SDS011;65080;50.908;6.916;2022-12-18T17:57:54;30.83;;;17.87;;
76262;SDS011;65080;50.908;6.916;2022-12-18T18:00:25;34.70;;;18.10;;
76262;SDS011;65080;50.908;6.916;2022-12-18T18:02:53;29.33;;;17.77;;
76262;SDS011;65080;50.908;6.916;2022-12-18T18:05:26;31.20;;;18.33;;
76262;SDS011;65080;50.908;6.916;2022-12-18T18:07:56;34.70;;;18.57;;
76262;SDS011;65080;50.908;6.916;2022-12-18T18:10:25;27.87;;;17.33;;
76262;SDS011;65080;50.908;6.916;2022-12-18T18:12:59;30.10;;;16.90;;
76262;SDS011;65080;50.908;6.916;2022-12-18T18:15:53;36.77;;;18.00;;
76262;SDS011;65080;50.908;6.916;2022-12-18T18:18:22;29.47;;;17.47;;
76262;SDS011;65080;50.908;6.916;2022-12-18T18:20:51;33.30;;;18.00;;
76262;SDS011;65080;50.908;6.916;2022-12-18T18:23:24;28.63;;;16.27;;
76262;SDS011;65080;50.908;6.916;2022-12-18T18:25:54;28.97;;;16.87;;
76262;SDS011;65080;50.908;6.916;2022-12-18T18:28:22;27.40;;;17.40;;
76262;SDS011;65080;50.908;6.916;2022-12-18T18:30:51;29.90;;;17.80;;
76262;SDS011;65080;50.908;6.916;2022-12-18T18:33:19;33.10;;;18.40;;
76262;SDS011;65080;50.908;6.916;2022-12-18T18:35:48;32.10;;;16.90;;
76262;SDS011;65080;50.908;6.916;2022-12-18T18:38:23;28.10;;;16.97;;
76262;SDS011;65080;50.908;6.916;2022-12-18T18:40:56;30.63;;;17.90;;
76262;SDS011;65080;50.908;6.916;2022-12-18T18:43:30;35.00;;;17.80;;
76262;SDS011;65080;50.908;6.916;2022-12-18T18:46:00;30.60;;;16.30;;
76262;SDS011;65080;50.908;6.916;2022-12-18T18:48:32;31.83;;;18.53;;
76262;SDS011;65080;50.908;6.916;2022-12-18T18:51:12;31.50;;;18.30;;
76262;SDS011;65080;50.908;6.916;2022-12-18T18:56:22;34.00;;;18.67;;
76262;SDS011;65080;50.908;6.916;2022-12-18T18:59:15;30.50;;;17.80;;
76262;SDS011;65080;50.908;6.916;2022-12-18T19:01:44;32.80;;;19.17;;
76262;SDS011;65080;50.908;6.916;2022-12-18T19:04:14;28.30;;;17.60;;
76262;SDS011;65080;50.908;6.916;2022-12-18T19:06:42;33.10;;;17.87;;
76262;SDS011;65080;50.908;6.916;2022-12-18T19:09:15;31.80;;;16.80;;
76262;SDS011;65080;50.908;6.916;2022-12-18T19:11:44;34.60;;;18.83;;
76262;SDS011;65080;50.908;6.916;2022-12-18T19:14:31;31.77;;;17.70;;
76262;SDS011;65080;50.908;6.916;2022-12-18T19:20:02;32.23;;;17.97;;
76262;SDS011;65080;50.908;6.916;2022-12-18T19:22:38;33.10;;;18.13;;
76262;SDS011;65080;50.908;6.916;2022-12-18T19:25:09;30.97;;;16.70;;